Time;durP1;ratioP1;P1;durP2;ratioP2;P2;SDS_P1;SDS_P2;PMS_P1;PMS_P2;Temp;Humidity;BMP_temperature;BMP_pressure;BME280_temperature;BME280_humidity;BME280_pressure;Samples;Min_cycle;Max_cycle;Signal;HPM_P1;HPM_P2
2023/01/16 00:01:07;;;;;;;3.00;1.70;;;;;;;;;;5056757;28;20538;-66
2023/01/16 00:03:32;;;;;;;7.97;2.00;;;;;;;;;;5056618;28;20685;-64
2023/01/16 00:05:58;;;;;;;5.53;2.10;;;;;;;;;;5056532;28;20640;-64
2023/01/16 00:08:23;;;;;;;4.37;1.67;;;;;;;;;;5038227;28;20178;-65
2023/01/16 00:10:48;;;;;;;3.33;1.70;;;;;;;;;;5036409;28;20504;-65
2023/01/16 00:13:14;;;;;;;4.27;1.70;;;;;;;;;;5036832;28;20229;-65
2023/01/16 00:15:48;;;;;;;4.87;1.70;;;;;;;;;;5036587;28;20199;-65
2023/01/16 00:18:13;;;;;;;8.03;1.77;;;;;;;;;;5036763;28;20218;-66
2023/01/16 00:20:38;;;;;;;5.53;2.67;;;;;;;;;;5036280;28;20966;-65
2023/01/16 00:23:04;;;;;;;2.77;1.60;;;;;;;;;;5036592;28;20261;-65
2023/01/16 00:25:29;;;;;;;1.67;1.33;;;;;;;;;;5036584;28;20291;-65
2023/01/16 00:27:55;;;;;;;3.47;1.80;;;;;;;;;;5036581;28;20248;-64
2023/01/16 00:30:21;;;;;;;3.30;1.53;;;;;;;;;;5044583;28;20179;-66
2023/01/16 00:32:46;;;;;;;2.67;1.40;;;;;;;;;;5056399;28;20171;-65
2023/01/16 00:35:12;;;;;;;6.20;1.63;;;;;;;;;;5056544;28;20187;-65
2023/01/16 00:37:37;;;;;;;4.33;1.53;;;;;;;;;;5056554;28;20167;-66
2023/01/16 00:40:04;;;;;;;3.67;1.10;;;;;;;;;;5056481;28;20175;-66
2023/01/16 00:42:30;;;;;;;5.17;1.70;;;;;;;;;;5053094;28;20174;-65
2023/01/16 00:44:55;;;;;;;4.90;1.40;;;;;;;;;;5053260;28;20432;-65
2023/01/16 00:47:20;;;;;;;7.57;1.87;;;;;;;;;;5053156;28;20190;-65
2023/01/16 00:49:46;;;;;;;6.07;1.40;;;;;;;;;;5053429;28;20170;-64
2023/01/16 00:52:11;;;;;;;5.10;1.73;;;;;;;;;;5052911;28;20167;-65
2023/01/16 00:54:37;;;;;;;2.33;1.30;;;;;;;;;;5053152;28;20728;-65
2023/01/16 00:57:02;;;;;;;4.30;1.70;;;;;;;;;;5053058;28;20174;-65
2023/01/16 00:59:27;;;;;;;7.83;1.70;;;;;;;;;;5053145;28;20171;-66
2023/01/16 01:01:53;;;;;;;3.17;1.70;;;;;;;;;;5052644;28;20175;-64
2023/01/16 01:04:18;;;;;;;7.40;2.30;;;;;;;;;;5053071;28;20197;-64
2023/01/16 01:06:44;;;;;;;2.40;1.17;;;;;;;;;;5047982;28;20187;-66
2023/01/16 01:09:10;;;;;;;4.20;1.33;;;;;;;;;;5033333;28;20206;-66
2023/01/16 01:11:35;;;;;;;4.20;1.73;;;;;;;;;;5032788;28;21099;-67
2023/01/16 01:14:01;;;;;;;2.30;1.27;;;;;;;;;;5032775;28;20183;-64
2023/01/16 01:16:26;;;;;;;4.23;1.60;;;;;;;;;;5032989;28;20202;-65
2023/01/16 01:18:52;;;;;;;5.20;1.30;;;;;;;;;;5032795;28;20237;-65
2023/01/16 01:21:17;;;;;;;5.17;1.43;;;;;;;;;;5032538;28;20253;-65
2023/01/16 01:23:43;;;;;;;2.03;1.40;;;;;;;;;;5032633;28;20172;-65
2023/01/16 01:26:10;;;;;;;1.67;1.33;;;;;;;;;;5032563;28;20593;-65
2023/01/16 01:28:36;;;;;;;1.30;1.20;;;;;;;;;;5032473;28;20191;-65
2023/01/16 01:31:04;;;;;;;3.83;1.50;;;;;;;;;;5045801;28;20937;-66
2023/01/16 01:33:29;;;;;;;2.60;1.23;;;;;;;;;;5052272;28;20170;-66
2023/01/16 01:35:55;;;;;;;2.73;1.20;;;;;;;;;;5052324;28;20421;-65
2023/01/16 01:38:20;;;;;;;2.90;1.40;;;;;;;;;;5052259;28;20163;-66
2023/01/16 01:40:45;;;;;;;1.47;1.37;;;;;;;;;;5051957;28;20163;-65
2023/01/16 01:43:13;;;;;;;2.90;1.20;;;;;;;;;;5050864;28;20197;-65
2023/01/16 01:45:40;;;;;;;1.47;1.17;;;;;;;;;;5052106;28;20195;-66
2023/01/16 01:48:12;;;;;;;2.40;1.13;;;;;;;;;;5051922;28;20460;-66
2023/01/16 01:50:44;;;;;;;4.30;1.70;;;;;;;;;;5051770;28;20780;-65
2023/01/16 01:53:18;;;;;;;4.00;1.33;;;;;;;;;;5052040;28;20436;-66
2023/01/16 01:55:46;;;;;;;1.97;1.60;;;;;;;;;;5052015;28;20416;-66
2023/01/16 01:58:18;;;;;;;5.10;1.90;;;;;;;;;;5051912;28;20401;-66
2023/01/16 02:00:44;;;;;;;2.33;1.60;;;;;;;;;;5051748;28;20417;-66
2023/01/16 02:03:14;;;;;;;1.60;1.50;;;;;;;;;;5051873;28;20516;-66
2023/01/16 02:05:46;;;;;;;3.00;1.60;;;;;;;;;;5051826;28;20437;-66
2023/01/16 02:08:16;;;;;;;1.50;1.07;;;;;;;;;;5034856;28;20646;-65
2023/01/16 02:10:55;;;;;;;2.63;1.70;;;;;;;;;;5031569;28;20441;-66
2023/01/16 02:13:21;;;;;;;4.40;1.73;;;;;;;;;;5031911;28;20457;-65
2023/01/16 02:21:46;;;;;;;3.10;1.60;;;;;;;;;;5031738;28;20405;-65
2023/01/16 02:24:50;;;;;;;1.67;1.50;;;;;;;;;;5031468;28;20785;-65
2023/01/16 02:28:14;;;;;;;3.73;1.63;;;;;;;;;;5015533;28;20527;-64
2023/01/16 02:31:09;;;;;;;2.10;1.37;;;;;;;;;;4972823;28;20447;-65
2023/01/16 02:33:34;;;;;;;2.60;1.50;;;;;;;;;;5051227;28;20408;-64
2023/01/16 02:36:19;;;;;;;4.70;2.00;;;;;;;;;;5051323;28;20452;-65
2023/01/16 02:39:05;;;;;;;4.83;2.50;;;;;;;;;;5051235;28;20171;-65
2023/01/16 02:42:12;;;;;;;4.33;1.63;;;;;;;;;;5050882;28;20469;-66
2023/01/16 02:44:44;;;;;;;4.70;1.33;;;;;;;;;;5036686;28;20536;-66
2023/01/16 02:47:36;;;;;;;2.13;1.30;;;;;;;;;;5051920;28;20461;-66
2023/01/16 02:50:36;;;;;;;4.60;1.70;;;;;;;;;;5051279;28;20439;-64
2023/01/16 02:53:45;;;;;;;4.93;2.13;;;;;;;;;;5051040;28;20409;-64
2023/01/16 02:56:14;;;;;;;6.50;1.57;;;;;;;;;;5050897;28;20429;-66
2023/01/16 02:58:43;;;;;;;5.83;1.60;;;;;;;;;;5050758;28;20409;-66
2023/01/16 03:01:11;;;;;;;3.57;1.60;;;;;;;;;;5050762;28;20413;-66
2023/01/16 03:04:25;;;;;;;5.13;1.40;;;;;;;;;;5051054;28;20402;-66
2023/01/16 03:07:02;;;;;;;1.70;1.23;;;;;;;;;;4984158;28;20490;-66
2023/01/16 03:09:41;;;;;;;1.13;1.03;;;;;;;;;;5031313;28;20491;-65
2023/01/16 03:12:26;;;;;;;2.60;1.50;;;;;;;;;;5030946;28;20426;-65
2023/01/16 03:15:47;;;;;;;5.73;1.70;;;;;;;;;;5031107;28;20441;-65
2023/01/16 03:18:37;;;;;;;3.50;1.70;;;;;;;;;;5015054;28;20834;-65
2023/01/16 03:21:33;;;;;;;2.87;1.37;;;;;;;;;;5030482;28;20434;-64
2023/01/16 03:24:07;;;;;;;2.43;1.60;;;;;;;;;;5030413;28;20482;-66
2023/01/16 03:26:45;;;;;;;2.20;1.37;;;;;;;;;;5030308;28;20458;-66
2023/01/16 03:29:20;;;;;;;1.93;1.30;;;;;;;;;;5030689;28;20406;-66
2023/01/16 03:31:48;;;;;;;2.50;1.40;;;;;;;;;;5049993;28;20401;-66
2023/01/16 03:34:21;;;;;;;4.87;1.47;;;;;;;;;;5050254;28;20433;-66
2023/01/16 03:36:55;;;;;;;2.03;1.00;;;;;;;;;;5050361;28;20406;-66
2023/01/16 03:39:27;;;;;;;1.57;1.10;;;;;;;;;;5050772;28;20458;-66
2023/01/16 03:41:57;;;;;;;3.80;1.30;;;;;;;;;;5050206;28;20568;-66
2023/01/16 03:44:33;;;;;;;2.33;1.30;;;;;;;;;;5050408;28;20429;-66
2023/01/16 03:47:00;;;;;;;6.97;2.17;;;;;;;;;;5050463;28;20449;-64
2023/01/16 03:49:34;;;;;;;2.37;1.23;;;;;;;;;;5050489;28;20412;-65
2023/01/16 03:52:02;;;;;;;3.53;1.40;;;;;;;;;;5050230;28;20406;-65
2023/01/16 03:54:36;;;;;;;2.13;1.40;;;;;;;;;;5050120;28;20417;-65
2023/01/16 03:57:13;;;;;;;3.70;1.50;;;;;;;;;;5050302;28;20398;-65
2023/01/16 03:59:41;;;;;;;1.63;1.37;;;;;;;;;;5050012;28;20926;-65
2023/01/16 04:02:26;;;;;;;3.77;1.50;;;;;;;;;;5049968;28;20416;-65
2023/01/16 04:05:03;;;;;;;4.30;1.70;;;;;;;;;;5050354;28;20421;-66
2023/01/16 04:07:35;;;;;;;4.30;2.97;;;;;;;;;;5039377;28;20464;-66
2023/01/16 04:10:12;;;;;;;3.67;1.73;;;;;;;;;;5030278;28;20455;-66
2023/01/16 04:12:43;;;;;;;1.93;1.47;;;;;;;;;;5030049;28;20409;-66
2023/01/16 04:15:09;;;;;;;3.97;1.60;;;;;;;;;;5057418;23;21611;-70
2023/01/16 04:17:37;;;;;;;2.40;1.57;;;;;;;;;;5071874;28;20408;-69
2023/01/16 04:20:03;;;;;;;5.13;1.97;;;;;;;;;;5074425;28;20539;-71
2023/01/16 04:22:29;;;;;;;4.10;1.70;;;;;;;;;;5073800;28;20419;-70
2023/01/16 04:24:58;;;;;;;2.67;1.43;;;;;;;;;;5074187;28;20413;-70
2023/01/16 04:27:24;;;;;;;2.23;1.60;;;;;;;;;;5074129;28;21240;-70
2023/01/16 04:29:50;;;;;;;2.67;1.80;;;;;;;;;;5074319;28;20419;-71
2023/01/16 04:32:15;;;;;;;7.33;1.70;;;;;;;;;;5073671;28;20174;-70
2023/01/16 04:34:41;;;;;;;6.20;2.30;;;;;;;;;;5073961;28;20414;-71
2023/01/16 04:37:06;;;;;;;2.90;1.37;;;;;;;;;;5073786;28;20186;-71
2023/01/16 04:39:32;;;;;;;2.47;1.47;;;;;;;;;;5074402;28;20284;-72
2023/01/16 04:41:57;;;;;;;2.40;1.70;;;;;;;;;;5078853;28;20738;-70
2023/01/16 04:44:23;;;;;;;2.07;1.40;;;;;;;;;;5077558;28;20646;-70
2023/01/16 04:46:49;;;;;;;3.00;1.50;;;;;;;;;;5079415;28;20206;-71
2023/01/16 04:49:14;;;;;;;4.53;1.80;;;;;;;;;;5078872;28;20174;-72
2023/01/16 04:51:40;;;;;;;3.83;1.70;;;;;;;;;;5076853;28;20178;-70
2023/01/16 04:54:09;;;;;;;4.40;2.57;;;;;;;;;;5075054;28;20170;-70
2023/01/16 04:56:35;;;;;;;10.43;2.50;;;;;;;;;;5074186;28;20537;-69
2023/01/16 04:59:01;;;;;;;5.10;1.57;;;;;;;;;;5074959;28;20404;-70
2023/01/16 05:01:27;;;;;;;8.27;1.40;;;;;;;;;;5056365;28;20412;-70
2023/01/16 05:03:52;;;;;;;4.57;1.80;;;;;;;;;;5074946;28;20178;-70
2023/01/16 05:06:17;;;;;;;4.20;1.80;;;;;;;;;;5074841;28;20201;-70
2023/01/16 05:08:43;;;;;;;6.53;2.53;;;;;;;;;;5074624;28;20176;-71
2023/01/16 05:11:09;;;;;;;2.47;1.87;;;;;;;;;;5074276;28;20174;-69
2023/01/16 05:13:54;;;;;;;2.17;1.83;;;;;;;;;;5074445;28;20174;-70
2023/01/16 05:16:20;;;;;;;1.70;1.53;;;;;;;;;;4992663;28;20255;-70
2023/01/16 05:18:45;;;;;;;2.87;1.90;;;;;;;;;;4993109;28;20865;-71
2023/01/16 05:21:11;;;;;;;3.60;1.60;;;;;;;;;;4989599;28;20247;-72
2023/01/16 05:23:37;;;;;;;2.80;1.63;;;;;;;;;;4989215;28;20276;-72
2023/01/16 05:26:06;;;;;;;1.60;1.50;;;;;;;;;;4992537;28;20228;-70
2023/01/16 05:28:33;;;;;;;3.00;1.80;;;;;;;;;;4991735;28;20193;-72
2023/01/16 05:30:59;;;;;;;4.63;2.37;;;;;;;;;;5005151;28;20411;-71
2023/01/16 05:33:24;;;;;;;3.90;2.33;;;;;;;;;;5011043;28;20548;-71
2023/01/16 05:35:53;;;;;;;4.40;2.00;;;;;;;;;;5012231;28;20538;-71
2023/01/16 05:38:19;;;;;;;5.40;2.60;;;;;;;;;;5012653;28;20211;-71
2023/01/16 05:40:45;;;;;;;2.90;2.27;;;;;;;;;;5001612;28;20490;-70
2023/01/16 05:43:11;;;;;;;7.83;3.00;;;;;;;;;;5006914;28;20460;-70
2023/01/16 05:45:37;;;;;;;4.43;1.93;;;;;;;;;;4989304;28;20463;-71
2023/01/16 05:48:03;;;;;;;3.50;2.80;;;;;;;;;;4989055;28;20616;-71
2023/01/16 05:50:28;;;;;;;5.70;2.40;;;;;;;;;;4988928;28;20180;-71
2023/01/16 05:52:54;;;;;;;7.90;2.43;;;;;;;;;;5015577;28;20420;-71
2023/01/16 05:55:19;;;;;;;5.63;2.60;;;;;;;;;;5070481;28;20190;-71
2023/01/16 05:57:45;;;;;;;5.80;2.77;;;;;;;;;;5070792;28;20166;-70
2023/01/16 06:00:11;;;;;;;7.97;3.07;;;;;;;;;;5070172;28;20190;-72
2023/01/16 06:02:36;;;;;;;3.83;2.33;;;;;;;;;;5070427;28;20249;-72
2023/01/16 06:05:02;;;;;;;6.23;2.30;;;;;;;;;;5052768;28;20859;-71
2023/01/16 06:07:28;;;;;;;3.07;2.13;;;;;;;;;;5069817;28;20550;-71
2023/01/16 06:09:53;;;;;;;4.30;2.43;;;;;;;;;;5069485;28;20423;-72
2023/01/16 06:12:20;;;;;;;7.87;2.57;;;;;;;;;;5069855;28;20166;-72
2023/01/16 06:14:46;;;;;;;4.20;2.93;;;;;;;;;;5071283;28;20181;-71
2023/01/16 06:17:14;;;;;;;4.57;2.40;;;;;;;;;;5070936;28;20546;-72
2023/01/16 06:19:40;;;;;;;2.30;2.10;;;;;;;;;;5072070;28;21124;-71
2023/01/16 06:22:05;;;;;;;2.80;2.50;;;;;;;;;;5070920;28;20470;-71
2023/01/16 06:24:31;;;;;;;3.23;2.30;;;;;;;;;;5056805;28;20998;-72
2023/01/16 06:26:57;;;;;;;13.73;2.80;;;;;;;;;;5063426;28;20202;-70
2023/01/16 06:29:22;;;;;;;4.60;2.37;;;;;;;;;;5059429;28;20266;-71
2023/01/16 06:31:47;;;;;;;3.53;1.93;;;;;;;;;;5058230;28;20186;-71
2023/01/16 06:34:13;;;;;;;2.77;2.30;;;;;;;;;;5067841;28;20166;-71
2023/01/16 06:36:38;;;;;;;3.40;2.60;;;;;;;;;;5069109;28;20658;-72
2023/01/16 06:39:04;;;;;;;13.33;4.07;;;;;;;;;;5056654;28;20274;-72
2023/01/16 06:41:29;;;;;;;20.80;9.20;;;;;;;;;;5061022;28;20174;-69
2023/01/16 06:43:55;;;;;;;14.10;6.10;;;;;;;;;;5092084;28;20169;-71
2023/01/16 06:46:20;;;;;;;8.03;4.07;;;;;;;;;;5069997;28;20198;-70
2023/01/16 06:48:45;;;;;;;7.67;3.63;;;;;;;;;;5045994;28;20691;-70
2023/01/16 06:51:11;;;;;;;7.80;4.20;;;;;;;;;;5048411;28;20250;-71
2023/01/16 06:53:37;;;;;;;7.00;4.70;;;;;;;;;;5057931;28;20257;-71
2023/01/16 06:56:02;;;;;;;20.97;4.57;;;;;;;;;;5057045;28;20650;-70
2023/01/16 06:58:28;;;;;;;14.73;4.20;;;;;;;;;;5059659;28;20649;-70
2023/01/16 07:00:55;;;;;;;8.63;3.73;;;;;;;;;;5068674;28;20178;-70
2023/01/16 07:03:21;;;;;;;6.70;4.20;;;;;;;;;;5067768;28;20542;-70
2023/01/16 07:05:46;;;;;;;7.67;3.80;;;;;;;;;;5054435;28;20467;-70
2023/01/16 07:08:13;;;;;;;7.47;2.90;;;;;;;;;;5060121;28;20221;-71
2023/01/16 07:10:39;;;;;;;7.50;3.90;;;;;;;;;;5049957;28;20654;-70
2023/01/16 07:13:04;;;;;;;5.50;3.33;;;;;;;;;;5068952;28;20415;-70
2023/01/16 07:23:53;;;;;;;4.70;3.03;;;;;;;;;;5056805;28;20446;-71
2023/01/16 07:26:21;;;;;;;7.70;2.90;;;;;;;;;;5061244;28;20479;-71
2023/01/16 07:28:48;;;;;;;7.30;3.17;;;;;;;;;;5064316;28;20444;-72
2023/01/16 07:31:14;;;;;;;9.37;4.03;;;;;;;;;;5068280;28;20443;-69
2023/01/16 07:33:39;;;;;;;13.53;4.03;;;;;;;;;;5066869;28;20897;-70
2023/01/16 07:36:05;;;;;;;5.27;3.23;;;;;;;;;;5067537;28;20199;-71
2023/01/16 07:38:31;;;;;;;4.77;3.30;;;;;;;;;;5059198;28;20174;-73
2023/01/16 07:40:56;;;;;;;8.93;3.60;;;;;;;;;;5061192;28;20176;-70
2023/01/16 07:43:22;;;;;;;5.00;3.20;;;;;;;;;;5059698;28;20639;-71
2023/01/16 07:45:52;;;;;;;5.20;3.03;;;;;;;;;;5060070;28;20194;-71
2023/01/16 07:48:23;;;;;;;7.13;3.40;;;;;;;;;;5053650;28;20289;-73
2023/01/16 07:50:54;;;;;;;5.37;3.40;;;;;;;;;;5060778;28;20747;-72
2023/01/16 07:53:23;;;;;;;4.63;2.57;;;;;;;;;;5065232;28;20966;-72
2023/01/16 07:55:50;;;;;;;4.60;3.00;;;;;;;;;;5064809;28;20429;-70
2023/01/16 07:58:16;;;;;;;8.47;4.53;;;;;;;;;;5062749;28;20405;-71
2023/01/16 08:00:42;;;;;;;4.70;3.13;;;;;;;;;;5064260;28;20420;-71
2023/01/16 08:03:07;;;;;;;5.60;2.57;;;;;;;;;;5065138;28;20413;-73
2023/01/16 08:05:33;;;;;;;5.10;3.00;;;;;;;;;;5063708;28;20569;-73
2023/01/16 08:07:58;;;;;;;6.33;3.20;;;;;;;;;;5066395;28;20660;-72
2023/01/16 08:10:23;;;;;;;6.50;2.73;;;;;;;;;;5064610;28;20173;-73
2023/01/16 08:12:49;;;;;;;4.30;3.03;;;;;;;;;;5065642;28;20615;-72
2023/01/16 08:15:14;;;;;;;7.40;2.67;;;;;;;;;;5062921;28;20324;-73
2023/01/16 08:17:40;;;;;;;43.33;8.00;;;;;;;;;;5064868;28;20169;-73
2023/01/16 08:20:07;;;;;;;5.83;2.30;;;;;;;;;;5065470;28;20651;-72
2023/01/16 08:22:33;;;;;;;40.50;7.90;;;;;;;;;;5055426;28;20181;-72
2023/01/16 08:24:58;;;;;;;4.57;2.93;;;;;;;;;;5065731;28;20408;-73
2023/01/16 08:27:24;;;;;;;13.83;3.33;;;;;;;;;;5067227;28;20207;-71
2023/01/16 08:29:49;;;;;;;7.90;3.00;;;;;;;;;;5057856;28;20213;-71
2023/01/16 08:32:15;;;;;;;2.63;2.00;;;;;;;;;;5081019;28;20201;-72
2023/01/16 08:34:41;;;;;;;78.50;9.87;;;;;;;;;;5076672;28;20214;-71
2023/01/16 08:37:10;;;;;;;55.43;11.00;;;;;;;;;;5075091;28;20193;-73
2023/01/16 08:39:38;;;;;;;39.47;6.03;;;;;;;;;;5056730;28;20432;-74
2023/01/16 08:53:04;;;;;;;9.13;5.57;;;;;;;;;;5054826;28;20458;-74
2023/01/16 08:55:30;;;;;;;6.17;4.47;;;;;;;;;;5054173;28;20429;-72
2023/01/16 08:57:58;;;;;;;6.23;4.90;;;;;;;;;;5053897;28;20909;-74
2023/01/16 09:00:28;;;;;;;5.70;4.30;;;;;;;;;;5062479;28;20196;-72
2023/01/16 09:02:55;;;;;;;9.63;4.80;;;;;;;;;;5072623;28;20413;-74
2023/01/16 09:05:21;;;;;;;7.53;5.20;;;;;;;;;;5073639;28;20553;-75
2023/01/16 09:07:47;;;;;;;9.30;5.17;;;;;;;;;;5060167;28;20461;-74
2023/01/16 09:10:12;;;;;;;8.13;4.20;;;;;;;;;;5053546;28;20194;-73
2023/01/16 09:15:23;;;;;;;7.63;4.00;;;;;;;;;;5053458;28;20297;-72
2023/01/16 09:17:48;;;;;;;4.67;3.33;;;;;;;;;;5052389;28;20493;-73
2023/01/16 09:20:14;;;;;;;4.13;3.60;;;;;;;;;;5072624;28;20412;-73
2023/01/16 09:22:40;;;;;;;7.00;3.80;;;;;;;;;;5062611;28;20170;-74
2023/01/16 09:25:06;;;;;;;6.83;4.10;;;;;;;;;;5069842;28;20186;-73
2023/01/16 09:27:31;;;;;;;5.90;3.67;;;;;;;;;;5066358;28;20222;-74
2023/01/16 09:29:57;;;;;;;4.33;3.60;;;;;;;;;;5065694;28;20223;-72
2023/01/16 09:32:22;;;;;;;6.37;3.30;;;;;;;;;;5063944;28;20174;-73
2023/01/16 09:34:48;;;;;;;6.17;3.30;;;;;;;;;;5067002;28;20637;-72
2023/01/16 09:37:16;;;;;;;10.10;3.90;;;;;;;;;;5072599;28;20173;-73
2023/01/16 09:39:42;;;;;;;6.53;2.87;;;;;;;;;;5073052;28;20204;-73
2023/01/16 09:45:16;;;;;;;10.13;4.40;;;;;;;;;;5072487;28;20173;-73
2023/01/16 09:47:45;;;;;;;17.40;4.00;;;;;;;;;;5072036;28;20455;-72
2023/01/16 09:50:38;;;;;;;3.63;2.50;;;;;;;;;;5072780;28;20927;-74
2023/01/16 09:58:42;;;;;;;6.53;2.93;;;;;;;;;;5072190;28;20766;-73
2023/01/16 10:01:18;;;;;;;2.53;1.70;;;;;;;;;;5066216;28;20433;-73
2023/01/16 10:03:44;;;;;;;1.83;1.33;;;;;;;;;;5070460;28;20923;-73
2023/01/16 10:06:17;;;;;;;5.47;2.17;;;;;;;;;;5072150;28;20432;-72
2023/01/16 10:08:48;;;;;;;3.50;1.80;;;;;;;;;;5052373;28;20163;-73
2023/01/16 10:11:23;;;;;;;7.53;2.03;;;;;;;;;;5053608;28;20421;-72
2023/01/16 10:14:13;;;;;;;4.43;2.13;;;;;;;;;;5072141;28;20412;-74
2023/01/16 10:16:56;;;;;;;9.47;3.30;;;;;;;;;;5072489;28;20523;-71
2023/01/16 10:19:34;;;;;;;10.87;3.17;;;;;;;;;;5071992;28;20408;-71
2023/01/16 10:22:04;;;;;;;22.97;4.00;;;;;;;;;;5079059;28;20490;-70
2023/01/16 10:24:38;;;;;;;14.07;3.73;;;;;;;;;;5072568;28;20412;-70
2023/01/16 10:27:41;;;;;;;3.97;2.00;;;;;;;;;;5072209;28;20466;-72
2023/01/16 10:30:14;;;;;;;19.23;3.70;;;;;;;;;;5070957;28;20435;-72
2023/01/16 10:33:04;;;;;;;3.53;2.20;;;;;;;;;;5067657;28;20428;-71
2023/01/16 10:35:34;;;;;;;2.23;1.50;;;;;;;;;;5051731;28;20426;-72
2023/01/16 10:38:16;;;;;;;2.17;1.50;;;;;;;;;;5051702;28;20401;-71
2023/01/16 10:40:42;;;;;;;4.53;1.63;;;;;;;;;;5063959;28;20428;-72
2023/01/16 10:49:27;;;;;;;3.43;1.63;;;;;;;;;;5071587;28;20423;-73
2023/01/16 10:51:59;;;;;;;5.00;1.60;;;;;;;;;;5066755;28;20427;-72
2023/01/16 10:54:25;;;;;;;34.70;5.47;;;;;;;;;;5051400;28;20414;-71
2023/01/16 10:56:51;;;;;;;28.20;5.10;;;;;;;;;;5051194;28;20429;-72
2023/01/16 10:59:18;;;;;;;11.30;5.30;;;;;;;;;;5051484;28;20189;-74
2023/01/16 11:01:44;;;;;;;27.00;4.07;;;;;;;;;;5068738;28;20512;-73
2023/01/16 11:04:11;;;;;;;16.40;5.93;;;;;;;;;;5071048;28;20439;-73
2023/01/16 11:06:40;;;;;;;17.37;5.20;;;;;;;;;;5070770;28;20479;-74
2023/01/16 11:09:16;;;;;;;74.10;10.20;;;;;;;;;;5071377;28;20400;-72
2023/01/16 11:20:24;;;;;;;11.43;4.10;;;;;;;;;;5070231;28;20443;-74
2023/01/16 11:22:58;;;;;;;17.57;3.10;;;;;;;;;;5070861;28;20438;-72
2023/01/16 11:25:25;;;;;;;8.33;3.33;;;;;;;;;;5070755;28;20420;-73
2023/01/16 11:27:52;;;;;;;6.83;3.87;;;;;;;;;;5070337;28;20452;-72
2023/01/16 11:30:28;;;;;;;11.87;4.07;;;;;;;;;;5066821;28;20875;-74
2023/01/16 11:32:56;;;;;;;6.30;3.23;;;;;;;;;;5065297;28;20445;-73
2023/01/16 11:35:30;;;;;;;12.33;4.40;;;;;;;;;;5069971;28;20428;-74
2023/01/16 11:37:56;;;;;;;7.83;3.60;;;;;;;;;;5070758;28;20775;-73
2023/01/16 11:40:25;;;;;;;8.23;3.43;;;;;;;;;;5050777;28;20500;-74
2023/01/16 11:46:02;;;;;;;7.80;4.20;;;;;;;;;;5058725;28;20526;-74
2023/01/16 11:48:27;;;;;;;6.53;4.20;;;;;;;;;;5062360;28;20886;-75
2023/01/16 11:50:56;;;;;;;10.83;3.50;;;;;;;;;;5066988;28;20500;-74
2023/01/16 11:53:22;;;;;;;5.27;4.00;;;;;;;;;;5049571;28;20679;-73
2023/01/16 11:56:17;;;;;;;14.20;4.17;;;;;;;;;;5063802;28;20490;-74
2023/01/16 11:59:06;;;;;;;71.70;14.00;;;;;;;;;;5065061;28;20443;-73
2023/01/16 12:04:36;;;;;;;26.60;11.80;;;;;;;;;;5063022;28;20454;-72
2023/01/16 12:07:29;;;;;;;15.23;9.40;;;;;;;;;;5063632;28;20462;-75
2023/01/16 12:10:19;;;;;;;7.47;5.50;;;;;;;;;;5062118;28;20435;-74
2023/01/16 12:16:30;;;;;;;12.67;4.83;;;;;;;;;;5053259;28;20597;-73
2023/01/16 12:19:26;;;;;;;9.60;4.57;;;;;;;;;;5060104;28;20433;-73
2023/01/16 12:22:31;;;;;;;10.20;3.70;;;;;;;;;;5063986;28;20531;-71
2023/01/16 12:25:34;;;;;;;17.13;3.93;;;;;;;;;;5060721;28;20426;-71
2023/01/16 12:28:31;;;;;;;14.93;3.80;;;;;;;;;;5059469;28;20794;-73
2023/01/16 12:31:15;;;;;;;6.40;3.67;;;;;;;;;;5061144;28;20424;-71
2023/01/16 12:34:18;;;;;;;7.57;3.47;;;;;;;;;;5055457;28;20963;-71
2023/01/16 12:36:55;;;;;;;14.23;3.67;;;;;;;;;;5061749;28;20424;-73
2023/01/16 12:39:48;;;;;;;23.33;5.47;;;;;;;;;;5063759;28;20404;-74
2023/01/16 12:45:22;;;;;;;13.90;4.67;;;;;;;;;;5066544;28;20448;-73
2023/01/16 12:48:09;;;;;;;27.30;4.70;;;;;;;;;;5063512;28;20464;-73
2023/01/16 12:50:53;;;;;;;49.60;5.77;;;;;;;;;;5064161;28;20486;-73
2023/01/16 12:53:39;;;;;;;38.10;5.40;;;;;;;;;;5067025;28;20495;-73
2023/01/16 12:56:15;;;;;;;11.87;3.27;;;;;;;;;;5069029;28;20421;-73
2023/01/16 12:58:47;;;;;;;7.00;3.33;;;;;;;;;;5065495;28;20436;-72
2023/01/16 13:01:18;;;;;;;5.43;2.70;;;;;;;;;;5066834;28;20444;-72
2023/01/16 13:03:43;;;;;;;5.63;2.90;;;;;;;;;;5063758;28;20435;-72
2023/01/16 13:06:20;;;;;;;13.20;3.47;;;;;;;;;;5063838;28;20432;-72
2023/01/16 13:09:00;;;;;;;4.90;3.17;;;;;;;;;;5064121;28;20169;-73
2023/01/16 13:14:31;;;;;;;10.73;3.90;;;;;;;;;;5064101;28;20975;-71
2023/01/16 13:17:05;;;;;;;21.50;5.00;;;;;;;;;;5063529;28;20439;-73
2023/01/16 13:19:36;;;;;;;5.87;3.70;;;;;;;;;;5061737;28;20417;-72
2023/01/16 13:22:25;;;;;;;6.60;3.37;;;;;;;;;;5062183;28;20483;-73
2023/01/16 13:25:20;;;;;;;5.90;3.20;;;;;;;;;;5065669;28;20418;-73
2023/01/16 13:27:54;;;;;;;10.50;3.00;;;;;;;;;;5042490;28;20488;-74
2023/01/16 13:30:20;;;;;;;6.20;2.60;;;;;;;;;;5069345;28;20419;-75
2023/01/16 13:32:57;;;;;;;4.30;2.93;;;;;;;;;;5068224;28;20924;-73
2023/01/16 13:35:54;;;;;;;5.20;2.90;;;;;;;;;;5074251;28;20463;-73
2023/01/16 13:38:39;;;;;;;9.57;3.30;;;;;;;;;;5073861;28;20435;-73
2023/01/16 13:41:20;;;;;;;8.57;3.87;;;;;;;;;;5048670;28;20422;-71
2023/01/16 13:46:46;;;;;;;9.93;3.20;;;;;;;;;;5062618;28;20471;-73
2023/01/16 13:49:24;;;;;;;11.90;4.10;;;;;;;;;;5062441;28;20412;-73
2023/01/16 13:51:51;;;;;;;21.27;5.07;;;;;;;;;;5063339;28;20409;-73
2023/01/16 13:54:24;;;;;;;9.27;3.90;;;;;;;;;;5062986;28;20413;-74
2023/01/16 13:57:02;;;;;;;22.13;6.43;;;;;;;;;;5063503;28;20998;-74
2023/01/16 13:59:43;;;;;;;35.90;5.67;;;;;;;;;;5065346;28;20934;-73
2023/01/16 14:02:26;;;;;;;9.93;3.57;;;;;;;;;;5063214;28;20409;-74
2023/01/16 14:05:30;;;;;;;8.17;2.47;;;;;;;;;;5068752;28;20777;-73
2023/01/16 14:10:44;;;;;;;12.70;3.00;;;;;;;;;;5052527;28;20820;-74
2023/01/16 14:13:21;;;;;;;7.13;3.03;;;;;;;;;;5052479;28;20401;-74
2023/01/16 14:18:39;;;;;;;6.37;2.73;;;;;;;;;;5065621;28;20396;-73
2023/01/16 14:21:16;;;;;;;6.30;3.43;;;;;;;;;;5070152;28;20459;-73
2023/01/16 14:24:02;;;;;;;5.83;3.77;;;;;;;;;;5072625;28;20779;-74
2023/01/16 14:26:54;;;;;;;6.87;3.33;;;;;;;;;;5072114;28;20421;-74
2023/01/16 14:29:46;;;;;;;12.97;5.73;;;;;;;;;;5064730;28;21016;-73
2023/01/16 14:32:12;;;;;;;12.33;3.33;;;;;;;;;;5067887;28;20515;-75
2023/01/16 14:34:50;;;;;;;17.97;5.17;;;;;;;;;;5072709;28;20555;-73
2023/01/16 14:37:28;;;;;;;4.73;3.27;;;;;;;;;;5072335;28;20219;-73
2023/01/16 14:39:59;;;;;;;2.63;2.43;;;;;;;;;;5072272;28;20419;-73
2023/01/16 14:56:44;;;;;;;19.53;3.23;;;;;;;;;;5070388;28;20475;-71
2023/01/16 14:59:17;;;;;;;4.33;2.10;;;;;;;;;;5071705;28;20436;-71
2023/01/16 15:04:55;;;;;;;6.07;2.00;;;;;;;;;;5072025;28;20831;-71
2023/01/16 15:07:42;;;;;;;7.10;2.17;;;;;;;;;;5049947;28;20788;-72
2023/01/16 15:10:20;;;;;;;21.80;5.07;;;;;;;;;;5069662;28;20424;-71
2023/01/16 15:12:46;;;;;;;6.27;2.33;;;;;;;;;;5071656;28;20435;-73
2023/01/16 15:15:25;;;;;;;29.70;4.63;;;;;;;;;;5071933;28;20441;-73
2023/01/16 15:23:36;;;;;;;5.07;1.77;;;;;;;;;;5072543;28;20478;-73
2023/01/16 15:26:04;;;;;;;10.93;2.17;;;;;;;;;;5071647;28;20424;-75
2023/01/16 15:29:15;;;;;;;4.83;2.63;;;;;;;;;;5071872;28;20546;-73
2023/01/16 15:31:45;;;;;;;7.43;2.00;;;;;;;;;;5054698;28;20436;-72
2023/01/16 15:34:23;;;;;;;8.90;1.73;;;;;;;;;;5070312;28;20408;-75
2023/01/16 15:36:54;;;;;;;10.20;1.77;;;;;;;;;;5065698;28;20528;-73
2023/01/16 15:39:39;;;;;;;6.43;2.77;;;;;;;;;;5062458;28;20785;-73
2023/01/16 15:47:58;;;;;;;2.27;1.50;;;;;;;;;;5058867;28;20489;-73
2023/01/16 15:50:38;;;;;;;78.47;7.07;;;;;;;;;;5064694;28;20909;-73
2023/01/16 15:53:04;;;;;;;8.53;2.23;;;;;;;;;;5057824;28;20933;-72
2023/01/16 15:55:37;;;;;;;54.70;7.40;;;;;;;;;;5065317;28;20437;-74
2023/01/16 15:58:04;;;;;;;6.37;2.03;;;;;;;;;;5065267;28;20189;-72
2023/01/16 16:00:39;;;;;;;4.30;1.50;;;;;;;;;;5062842;28;20441;-73
2023/01/16 16:03:16;;;;;;;15.83;2.70;;;;;;;;;;5057345;28;20416;-73
2023/01/16 16:05:47;;;;;;;13.30;3.27;;;;;;;;;;5057036;28;20473;-73
2023/01/16 16:08:17;;;;;;;8.13;1.60;;;;;;;;;;5061625;28;20467;-71
2023/01/16 16:13:28;;;;;;;11.60;1.90;;;;;;;;;;5067258;28;20589;-73
2023/01/16 16:18:58;;;;;;;2.83;1.50;;;;;;;;;;5068169;28;20260;-65
2023/01/16 16:22:47;;;;;;;49.40;7.57;;;;;;;;;;5067790;28;20443;-66
2023/01/16 16:24:23;;;;;;;3.10;1.70;;;;;;;;;;5069241;28;20523;-66
2023/01/16 16:26:49;;;;;;;1.63;1.43;;;;;;;;;;5068932;28;20883;-65
2023/01/16 16:29:20;;;;;;;6.43;1.63;;;;;;;;;;5064126;28;20243;-65
2023/01/16 16:31:48;;;;;;;7.23;1.60;;;;;;;;;;5067045;28;20224;-65
2023/01/16 16:34:19;;;;;;;3.83;2.00;;;;;;;;;;5064881;28;20462;-66
2023/01/16 16:36:47;;;;;;;5.80;2.13;;;;;;;;;;5063740;28;20428;-64
2023/01/16 16:39:33;;;;;;;1.50;1.30;;;;;;;;;;5063095;28;20432;-65
2023/01/16 16:44:49;;;;;;;2.83;1.87;;;;;;;;;;5064703;28;20485;-65
2023/01/16 16:47:22;;;;;;;3.60;1.80;;;;;;;;;;5066027;28;20472;-66
2023/01/16 16:49:47;;;;;;;2.03;1.73;;;;;;;;;;5062393;28;20438;-66
2023/01/16 16:52:31;;;;;;;7.60;2.50;;;;;;;;;;5061946;28;20764;-64
2023/01/16 16:54:59;;;;;;;1.73;1.47;;;;;;;;;;5062621;28;20430;-66
2023/01/16 16:57:26;;;;;;;2.37;2.00;;;;;;;;;;5064102;28;20510;-66
2023/01/16 16:59:53;;;;;;;2.40;1.53;;;;;;;;;;5064368;28;20409;-65
2023/01/16 17:02:19;;;;;;;3.53;1.40;;;;;;;;;;5061223;28;20471;-64